Ana Sayfa
METAR-TAF:

METAR-TAF

Havaalanları :

Tangier, Virginia, Amerika Birleşik Devletleri

Enlem: 37-49-31N, Boylam: 075-59-52W, yükseklik: 2 m

Güncel hava durumu gözlemi

Rapor saat 14:55 UTC de 34 dakika önce yapıldı.
Rüzgar kuzeydan 14 kt ve 19 kt'a kadar ani rüzgarlar
Sıcaklık 22°C
Nem 50%
Basınç 1020 hPa
Görüş mesafesi: 16.1 km
Açık gökyüzü

METAR: KTGI 241455Z AUTO 01014G19KT 10SM CLR 22/11 A3011 RMK AO1 T02180109

Saat: 11:29 (15:29 UTC)


TAF: eksik

4.000'den fazla havaalanı için hava durumu gözlemleri ve tahminleri (METAR ve TAF raporları).

Kullanılabilir istasyonlar harita üzerinde sarı ve kırmızı noktalarla gösterilir.

İstasyonun adını görmek için fareyi noktanın üzerinde gezdirin.

Sonrasında hava gözlem ve tahminlerini görmek için tıklayın.

Haritayı değiştirmek için: yaklaştırmak için siyah artı işaretli yeşil düğmeye ve uzaklaştırmak için de eksi işaretli düğmeye hızla tıklayın; bitişik haritalar için yeşil okları kullanın.


METAR-TAF: